Time;durP1;ratioP1;P1;durP2;ratioP2;P2;SDS_P1;SDS_P2;PMS_P1;PMS_P2;Temp;Humidity;BMP_temperature;BMP_pressure;BME280_temperature;BME280_humidity;BME280_pressure;Samples;Min_cycle;Max_cycle;Signal;HPM_P1;HPM_P2
2020/12/26 00:02:49;;;;;;;45.60;21.75;;;3.50;99.80;;;;;;10541681;28;20052;-74
2020/12/26 00:07:53;;;;;;;49.90;22.35;;;3.50;99.10;;;;;;10542932;28;20078;-74
2020/12/26 00:12:54;;;;;;;31.73;19.15;;;3.40;98.70;;;;;;10542736;28;20055;-73
2020/12/26 00:17:55;;;;;;;44.45;21.83;;;3.30;98.70;;;;;;10542468;28;20056;-73
2020/12/26 00:22:57;;;;;;;37.05;20.65;;;3.00;98.60;;;;;;10542862;28;20052;-74
2020/12/26 00:27:58;;;;;;;32.72;19.00;;;3.00;98.90;;;;;;10542363;28;20561;-73
2020/12/26 00:33:00;;;;;;;38.83;19.60;;;3.00;98.70;;;;;;10542147;28;20079;-73
2020/12/26 00:38:01;;;;;;;35.00;18.90;;;3.00;98.60;;;;;;10542078;28;20048;-73
2020/12/26 00:43:03;;;;;;;49.28;22.52;;;3.00;98.50;;;;;;10541741;28;20101;-73
2020/12/26 00:48:04;;;;;;;48.33;25.52;;;3.10;98.60;;;;;;10540020;28;20097;-73
2020/12/26 00:53:06;;;;;;;46.00;25.25;;;3.10;99.00;;;;;;10540928;28;20090;-73
2020/12/26 00:58:07;;;;;;;39.70;21.67;;;3.00;98.90;;;;;;10540987;28;20194;-73
2020/12/26 01:03:09;;;;;;;35.40;20.17;;;3.10;99.50;;;;;;10540668;28;20044;-73
2020/12/26 01:08:11;;;;;;;43.53;20.67;;;3.20;99.60;;;;;;10541113;28;20048;-73
2020/12/26 01:13:13;;;;;;;42.55;21.45;;;3.20;99.30;;;;;;10540439;28;20048;-73
2020/12/26 01:18:14;;;;;;;46.50;20.50;;;3.20;99.20;;;;;;10539967;28;20056;-73
2020/12/26 01:23:16;;;;;;;44.17;21.17;;;3.20;99.30;;;;;;10538971;28;20556;-73
2020/12/26 01:28:17;;;;;;;38.92;20.38;;;3.20;99.40;;;;;;10518991;28;20055;-73
2020/12/26 01:33:19;;;;;;;31.90;18.88;;;3.20;99.50;;;;;;10540038;28;20055;-73
2020/12/26 01:38:20;;;;;;;40.33;20.02;;;3.30;99.60;;;;;;10539495;28;20109;-72
2020/12/26 01:43:34;;;;;;;38.65;19.55;;;3.30;99.60;;;;;;10539206;28;20044;-73
2020/12/26 01:48:35;;;;;;;35.72;19.10;;;3.30;99.70;;;;;;10539122;28;20083;-73
2020/12/26 01:53:37;;;;;;;62.72;30.40;;;3.30;99.60;;;;;;10538611;28;20048;-73
2020/12/26 01:58:41;;;;;;;43.67;22.55;;;3.40;99.60;;;;;;10539047;28;20488;-73
2020/12/26 02:03:43;;;;;;;53.65;26.50;;;3.30;99.90;;;;;;10538599;28;20083;-74
2020/12/26 02:08:45;;;;;;;44.90;22.42;;;3.30;99.90;;;;;;10537310;28;20573;-73
2020/12/26 02:13:47;;;;;;;48.78;25.92;;;3.40;99.90;;;;;;10538268;28;20052;-74
2020/12/26 02:18:49;;;;;;;45.65;24.65;;;3.40;99.90;;;;;;10537755;28;20143;-73
2020/12/26 02:23:50;;;;;;;60.53;27.70;;;3.40;99.90;;;;;;10537438;28;20048;-74
2020/12/26 02:28:52;;;;;;;47.20;23.40;;;3.30;99.90;;;;;;10526244;28;20450;-73
2020/12/26 02:33:54;;;;;;;34.75;21.50;;;3.30;99.90;;;;;;10537124;28;20488;-74
2020/12/26 02:38:55;;;;;;;33.00;19.80;;;3.40;99.90;;;;;;10535972;28;20511;-73
2020/12/26 02:43:59;;;;;;;33.60;19.42;;;3.40;99.90;;;;;;10536447;28;20431;-74
2020/12/26 02:49:01;;;;;;;42.20;21.58;;;3.40;99.90;;;;;;10536664;28;20043;-73
2020/12/26 02:54:02;;;;;;;35.85;20.92;;;3.40;99.90;;;;;;10536656;28;20048;-74
2020/12/26 02:59:06;;;;;;;37.92;21.38;;;3.50;99.90;;;;;;10535980;28;20083;-73
2020/12/26 03:04:11;;;;;;;39.55;21.75;;;3.50;99.90;;;;;;10535062;28;20047;-74
2020/12/26 03:09:12;;;;;;;38.35;23.23;;;3.40;99.90;;;;;;10536569;28;20040;-73
2020/12/26 03:14:13;;;;;;;40.60;20.75;;;3.50;99.90;;;;;;10536249;28;20040;-74
2020/12/26 03:19:15;;;;;;;38.42;21.27;;;3.50;99.90;;;;;;10535003;28;20518;-73
2020/12/26 03:24:16;;;;;;;37.67;20.25;;;3.50;99.90;;;;;;10536260;28;20052;-73
2020/12/26 03:29:18;;;;;;;39.28;20.38;;;3.50;99.90;;;;;;10536118;28;20109;-74
2020/12/26 03:34:19;;;;;;;35.80;20.20;;;3.60;99.90;;;;;;10535378;28;20048;-73
2020/12/26 03:39:21;;;;;;;34.92;20.33;;;3.70;99.90;;;;;;10535731;28;20048;-74
2020/12/26 03:44:22;;;;;;;33.28;18.65;;;3.60;99.90;;;;;;10535852;28;20045;-74
2020/12/26 03:49:25;;;;;;;34.15;19.00;;;3.60;99.90;;;;;;10535163;28;20113;-74
2020/12/26 03:54:27;;;;;;;34.85;18.30;;;3.70;99.90;;;;;;10535511;28;20048;-74
2020/12/26 03:59:28;;;;;;;31.83;19.95;;;3.80;99.90;;;;;;10534825;28;20089;-73
2020/12/26 04:04:33;;;;;;;29.67;18.23;;;3.90;99.90;;;;;;10535257;28;20565;-73
2020/12/26 04:09:34;;;;;;;27.80;17.65;;;3.80;99.90;;;;;;10535415;28;20097;-74
2020/12/26 04:14:36;;;;;;;33.13;19.00;;;3.80;99.90;;;;;;10534651;28;20044;-73
2020/12/26 04:19:37;;;;;;;27.13;17.05;;;3.90;99.90;;;;;;10534474;28;20048;-73
2020/12/26 04:24:38;;;;;;;29.58;16.42;;;3.90;99.90;;;;;;10534289;28;20101;-74
2020/12/26 04:29:40;;;;;;;33.05;17.83;;;3.90;99.90;;;;;;10516104;28;20052;-74
2020/12/26 04:34:45;;;;;;;29.85;16.58;;;3.90;99.90;;;;;;10542525;28;20051;-74
2020/12/26 04:39:47;;;;;;;28.35;16.52;;;3.90;99.90;;;;;;10541736;28;20582;-74
2020/12/26 04:44:51;;;;;;;24.15;15.77;;;3.70;99.90;;;;;;10542168;28;20044;-74
2020/12/26 04:49:58;;;;;;;34.75;16.95;;;3.70;99.90;;;;;;10541650;28;20557;-73
2020/12/26 04:55:04;;;;;;;28.48;16.08;;;3.70;99.90;;;;;;10540877;28;20048;-74
2020/12/26 05:00:06;;;;;;;34.88;15.40;;;3.70;99.90;;;;;;10541348;28;20051;-73
2020/12/26 05:05:09;;;;;;;30.35;16.20;;;3.70;99.90;;;;;;10540884;28;20480;-74
2020/12/26 05:10:10;;;;;;;28.98;14.63;;;3.80;99.90;;;;;;10540632;28;20471;-74
2020/12/26 05:15:11;;;;;;;23.90;14.23;;;3.80;99.90;;;;;;10539961;28;20539;-74
2020/12/26 05:20:13;;;;;;;22.33;13.60;;;3.90;99.90;;;;;;10540821;28;20056;-74
2020/12/26 05:25:15;;;;;;;23.38;13.25;;;3.80;99.90;;;;;;10534911;28;20045;-74
2020/12/26 05:30:18;;;;;;;19.73;12.10;;;3.90;99.90;;;;;;10510663;28;20051;-74
2020/12/26 05:35:22;;;;;;;19.35;10.82;;;3.90;99.90;;;;;;10540135;28;20044;-74
2020/12/26 05:40:24;;;;;;;17.95;10.32;;;3.80;99.90;;;;;;10538226;28;20128;-73
2020/12/26 05:45:26;;;;;;;17.63;10.45;;;3.90;99.90;;;;;;10539547;28;20075;-74
2020/12/26 05:50:28;;;;;;;16.90;10.27;;;4.00;99.90;;;;;;10539387;28;20087;-73
2020/12/26 05:55:40;;;;;;;16.83;9.25;;;4.00;99.90;;;;;;10538491;28;20048;-74
2020/12/26 06:00:42;;;;;;;63.42;31.45;;;4.00;99.90;;;;;;10538206;28;20044;-73
2020/12/26 06:05:47;;;;;;;18.40;10.32;;;4.00;99.90;;;;;;10538734;28;20138;-74
2020/12/26 06:11:01;;;;;;;18.42;10.98;;;4.10;99.90;;;;;;10538751;28;20044;-73
2020/12/26 06:16:09;;;;;;;15.95;9.38;;;4.00;99.90;;;;;;10536967;28;20064;-74
2020/12/26 06:21:12;;;;;;;18.20;12.82;;;4.00;99.90;;;;;;10536792;28;20079;-73
2020/12/26 06:26:16;;;;;;;13.45;8.80;;;4.00;99.90;;;;;;10523914;28;20495;-73
2020/12/26 06:31:20;;;;;;;15.65;9.32;;;4.20;99.90;;;;;;10512573;28;20063;-72
2020/12/26 06:36:22;;;;;;;14.57;8.80;;;4.20;99.90;;;;;;10536723;28;20093;-74
2020/12/26 06:41:23;;;;;;;15.77;9.75;;;4.20;99.90;;;;;;10537971;28;20043;-73
2020/12/26 06:46:25;;;;;;;16.08;9.65;;;4.10;99.90;;;;;;10535423;28;20101;-75
2020/12/26 06:51:42;;;;;;;18.45;9.57;;;4.20;99.90;;;;;;10536324;28;20561;-74
2020/12/26 06:56:44;;;;;;;19.30;10.45;;;4.20;99.90;;;;;;10536808;28;20052;-74
2020/12/26 07:01:46;;;;;;;19.08;9.80;;;4.10;99.90;;;;;;10535197;28;20078;-74
2020/12/26 07:06:53;;;;;;;21.52;12.23;;;4.00;99.90;;;;;;10536369;28;20492;-74
2020/12/26 07:11:55;;;;;;;41.03;23.73;;;3.80;99.90;;;;;;10535980;28;20130;-73
2020/12/26 07:17:00;;;;;;;17.70;10.30;;;3.70;99.90;;;;;;10535610;28;20397;-74
2020/12/26 07:22:11;;;;;;;16.55;10.65;;;3.70;99.90;;;;;;10536192;28;20070;-73
2020/12/26 07:27:28;;;;;;;18.35;10.80;;;3.60;99.90;;;;;;10535537;28;20051;-73
2020/12/26 07:32:39;;;;;;;16.70;10.75;;;3.60;99.90;;;;;;10535546;28;20121;-73
2020/12/26 07:37:45;;;;;;;23.25;11.00;;;3.60;99.90;;;;;;10536209;28;20040;-74
2020/12/26 07:42:48;;;;;;;16.42;10.18;;;3.60;99.90;;;;;;10535222;28;20052;-74
2020/12/26 07:47:51;;;;;;;16.90;10.45;;;3.60;99.90;;;;;;10535281;28;20052;-73
2020/12/26 07:53:01;;;;;;;16.95;10.65;;;3.70;99.90;;;;;;10535689;28;20039;-73
2020/12/26 07:58:08;;;;;;;15.65;9.15;;;3.70;99.90;;;;;;10533812;28;20136;-73
2020/12/26 08:03:12;;;;;;;16.55;9.10;;;3.80;99.90;;;;;;10536276;28;20373;-73
2020/12/26 08:08:23;;;;;;;20.88;12.40;;;3.90;99.90;;;;;;10542942;28;20131;-73
2020/12/26 08:13:25;;;;;;;24.35;12.95;;;3.90;99.90;;;;;;10543158;28;20044;-74
2020/12/26 08:18:30;;;;;;;17.77;10.20;;;4.00;99.90;;;;;;10533919;28;20537;-74
2020/12/26 08:23:32;;;;;;;33.63;19.58;;;4.10;99.90;;;;;;10535306;28;20048;-74
2020/12/26 08:28:36;;;;;;;23.27;15.60;;;4.00;99.90;;;;;;10510393;28;20144;-74
2020/12/26 08:33:40;;;;;;;18.42;12.45;;;4.10;99.90;;;;;;10537040;28;20515;-74
2020/12/26 08:38:56;;;;;;;18.95;11.82;;;4.00;99.90;;;;;;10540253;28;20467;-74
2020/12/26 08:43:57;;;;;;;14.35;9.82;;;3.90;99.90;;;;;;10509260;28;20177;-74
2020/12/26 08:49:03;;;;;;;19.63;9.70;;;3.90;99.90;;;;;;10539926;28;20051;-73
2020/12/26 08:54:05;;;;;;;21.00;13.77;;;4.00;99.90;;;;;;10539781;28;20484;-73
2020/12/26 08:59:10;;;;;;;21.30;12.82;;;4.10;99.90;;;;;;10526796;28;20044;-73
2020/12/26 09:04:15;;;;;;;16.77;9.48;;;4.20;99.90;;;;;;10535241;28;20040;-74
2020/12/26 09:09:22;;;;;;;19.13;8.20;;;4.30;99.90;;;;;;10538480;28;20127;-73
2020/12/26 09:14:24;;;;;;;18.92;8.15;;;4.40;99.80;;;;;;10537017;28;20056;-73
2020/12/26 09:19:26;;;;;;;12.73;7.97;;;4.40;99.90;;;;;;10508800;28;20420;-74
2020/12/26 09:24:30;;;;;;;16.67;8.68;;;4.70;99.50;;;;;;10510324;28;20044;-73
2020/12/26 09:29:32;;;;;;;17.17;8.18;;;4.80;99.00;;;;;;10510373;28;20447;-71
2020/12/26 09:34:36;;;;;;;15.68;8.77;;;4.70;98.80;;;;;;10538211;28;20173;-71
2020/12/26 09:39:38;;;;;;;18.73;9.50;;;4.70;99.20;;;;;;10537961;28;20071;-71
2020/12/26 09:44:40;;;;;;;13.32;9.57;;;4.90;99.10;;;;;;10520444;28;20365;-71
2020/12/26 09:49:42;;;;;;;27.38;17.83;;;4.90;98.70;;;;;;10525985;28;20446;-71
2020/12/26 09:54:43;;;;;;;17.20;8.57;;;4.90;98.80;;;;;;10527668;28;20040;-71
2020/12/26 09:59:45;;;;;;;15.10;9.40;;;4.90;98.90;;;;;;10518182;28;20052;-71
2020/12/26 10:04:46;;;;;;;14.23;9.15;;;5.00;98.60;;;;;;10514062;28;20053;-71
2020/12/26 10:09:47;;;;;;;15.07;8.57;;;5.20;98.50;;;;;;10521786;28;20273;-71
2020/12/26 10:14:49;;;;;;;12.23;8.50;;;5.20;98.40;;;;;;10498771;28;20055;-71
2020/12/26 10:19:50;;;;;;;13.70;8.70;;;5.30;97.90;;;;;;10515608;28;20044;-71
2020/12/26 10:31:03;;;;;;;13.18;8.70;;;5.50;97.10;;;;;;10510151;28;20045;-71
2020/12/26 10:36:04;;;;;;;13.48;8.73;;;5.40;97.70;;;;;;10526465;28;20043;-71
2020/12/26 10:41:06;;;;;;;19.08;12.85;;;5.40;97.60;;;;;;10535233;28;20040;-71
2020/12/26 10:46:08;;;;;;;15.35;9.27;;;5.60;97.50;;;;;;10535332;28;20419;-71
2020/12/26 10:51:12;;;;;;;13.90;8.98;;;5.50;97.60;;;;;;10530969;28;20808;-71
2020/12/26 10:56:13;;;;;;;15.05;8.30;;;5.70;97.00;;;;;;10528766;28;20105;-70
2020/12/26 11:01:15;;;;;;;13.02;8.02;;;5.60;97.30;;;;;;10525698;28;20062;-71
2020/12/26 11:06:16;;;;;;;16.70;8.23;;;5.70;97.40;;;;;;10536535;28;20073;-71
2020/12/26 11:11:18;;;;;;;15.20;8.35;;;5.70;96.90;;;;;;10534639;28;20040;-71
2020/12/26 11:16:20;;;;;;;14.00;8.20;;;5.70;97.00;;;;;;10536474;28;20048;-71
2020/12/26 11:21:21;;;;;;;14.27;8.30;;;5.80;96.80;;;;;;10536295;28;20052;-71
2020/12/26 11:26:22;;;;;;;15.43;8.35;;;5.90;96.50;;;;;;10521224;28;20048;-71
2020/12/26 11:31:25;;;;;;;11.95;7.82;;;6.00;96.80;;;;;;10522170;28;20139;-71
2020/12/26 11:36:28;;;;;;;13.07;7.78;;;6.10;96.30;;;;;;10535958;28;20481;-71
2020/12/26 11:41:29;;;;;;;11.73;7.72;;;6.20;96.10;;;;;;10543253;28;20057;-71
2020/12/26 11:46:31;;;;;;;11.45;7.53;;;6.10;95.80;;;;;;10543861;28;20098;-71
2020/12/26 11:51:32;;;;;;;12.65;7.35;;;6.20;96.00;;;;;;10542858;28;20464;-71
2020/12/26 11:56:36;;;;;;;12.45;6.70;;;6.30;95.50;;;;;;10544060;28;20054;-71
2020/12/26 12:01:38;;;;;;;12.90;7.38;;;6.30;95.10;;;;;;10542334;28;20052;-71
2020/12/26 12:06:39;;;;;;;11.93;7.20;;;6.40;94.90;;;;;;10543100;28;20531;-71
2020/12/26 12:11:41;;;;;;;11.15;6.97;;;6.50;94.80;;;;;;10543910;28;20079;-71
2020/12/26 12:16:47;;;;;;;12.48;6.55;;;6.20;94.50;;;;;;10542776;28;20454;-71
2020/12/26 12:21:48;;;;;;;11.57;6.82;;;6.10;94.60;;;;;;10537730;28;20047;-72
2020/12/26 12:26:50;;;;;;;12.27;6.57;;;6.10;95.00;;;;;;10534141;28;20048;-72
2020/12/26 12:31:51;;;;;;;10.90;5.93;;;6.30;94.50;;;;;;10542123;28;20436;-72
2020/12/26 12:36:53;;;;;;;8.43;5.25;;;6.40;94.30;;;;;;10542256;28;20044;-72
2020/12/26 12:41:54;;;;;;;9.25;5.07;;;6.40;93.80;;;;;;10539613;28;20499;-72
2020/12/26 12:46:56;;;;;;;10.70;5.03;;;6.40;93.60;;;;;;10540741;28;20475;-72
2020/12/26 12:51:57;;;;;;;6.63;4.32;;;6.20;93.00;;;;;;10541352;28;20385;-72
2020/12/26 12:56:59;;;;;;;6.45;3.53;;;6.20;92.90;;;;;;10540232;28;20094;-72
2020/12/26 13:02:01;;;;;;;6.10;3.67;;;6.10;92.50;;;;;;10533949;28;20044;-72
2020/12/26 13:07:03;;;;;;;5.57;3.90;;;6.20;92.10;;;;;;10540723;28;20488;-72
2020/12/26 13:12:04;;;;;;;7.45;3.80;;;6.20;91.70;;;;;;10539146;28;20059;-71
2020/12/26 13:17:06;;;;;;;8.30;3.63;;;6.20;91.90;;;;;;10540389;28;20056;-71
2020/12/26 13:22:08;;;;;;;9.27;3.83;;;6.20;91.70;;;;;;10540458;28;20048;-71
2020/12/26 13:27:09;;;;;;;6.32;3.60;;;6.10;91.50;;;;;;10508844;28;20072;-72
2020/12/26 13:32:12;;;;;;;10.40;4.40;;;6.10;91.60;;;;;;10510245;28;20408;-72
2020/12/26 13:37:13;;;;;;;7.00;4.13;;;6.00;91.40;;;;;;10538602;28;20123;-72
2020/12/26 13:42:15;;;;;;;6.22;4.13;;;6.00;91.40;;;;;;10537235;28;20408;-72
2020/12/26 13:47:16;;;;;;;6.70;3.60;;;5.90;91.30;;;;;;10537569;28;20067;-72
2020/12/26 13:52:18;;;;;;;9.93;3.60;;;5.90;91.20;;;;;;10537336;28;20048;-71
2020/12/26 13:57:19;;;;;;;5.53;3.22;;;5.90;91.50;;;;;;10538194;28;20048;-72
2020/12/26 14:02:21;;;;;;;6.00;3.60;;;5.90;91.60;;;;;;10537796;28;20044;-72
2020/12/26 14:07:22;;;;;;;7.18;3.65;;;6.00;91.40;;;;;;10538300;28;20105;-72
2020/12/26 14:12:24;;;;;;;7.65;3.72;;;5.80;90.50;;;;;;10537908;28;20040;-72
2020/12/26 14:17:28;;;;;;;6.03;3.20;;;5.80;90.80;;;;;;10537889;28;20062;-72
2020/12/26 14:22:29;;;;;;;8.90;4.38;;;5.90;90.70;;;;;;10538018;28;20105;-72
2020/12/26 14:27:31;;;;;;;6.95;4.60;;;6.00;90.60;;;;;;10521489;28;20512;-72
2020/12/26 14:32:33;;;;;;;6.47;3.90;;;5.90;90.50;;;;;;10507555;28;20040;-71
2020/12/26 14:37:35;;;;;;;7.00;3.97;;;5.90;90.90;;;;;;10518126;28;20047;-72
2020/12/26 14:42:36;;;;;;;6.78;4.03;;;5.90;91.00;;;;;;10501667;28;20040;-71
2020/12/26 14:47:39;;;;;;;7.63;4.15;;;5.80;90.60;;;;;;10535378;28;20051;-72
2020/12/26 14:52:41;;;;;;;10.73;7.00;;;5.90;90.20;;;;;;10535952;28;20044;-72
2020/12/26 14:57:42;;;;;;;5.72;3.88;;;5.70;90.20;;;;;;10535028;28;20071;-72
2020/12/26 15:02:43;;;;;;;9.48;5.45;;;5.90;90.00;;;;;;10535799;28;20059;-72
2020/12/26 15:07:45;;;;;;;8.70;4.63;;;5.90;90.20;;;;;;10534792;28;20505;-72
2020/12/26 15:12:46;;;;;;;9.55;5.82;;;5.90;88.70;;;;;;10534971;28;20044;-72
2020/12/26 15:17:51;;;;;;;16.42;9.15;;;5.80;89.60;;;;;;10529897;28;20209;-71
2020/12/26 15:22:52;;;;;;;8.30;4.57;;;5.80;89.40;;;;;;10535891;28;20097;-72
2020/12/26 15:27:54;;;;;;;8.70;5.30;;;5.70;89.60;;;;;;10522464;28;20052;-71
2020/12/26 15:32:55;;;;;;;12.27;7.97;;;5.70;89.10;;;;;;10534927;28;20040;-71
2020/12/26 15:37:57;;;;;;;11.38;7.22;;;5.70;88.90;;;;;;10532078;28;20080;-72
2020/12/26 15:42:59;;;;;;;7.60;4.40;;;5.60;88.90;;;;;;10532691;28;20071;-72
2020/12/26 15:48:00;;;;;;;8.40;4.47;;;5.50;88.60;;;;;;10534388;28;20056;-72
2020/12/26 15:53:02;;;;;;;6.82;4.05;;;5.50;88.50;;;;;;10533380;28;20070;-72
2020/12/26 15:58:04;;;;;;;6.50;3.67;;;5.50;88.10;;;;;;10533939;28;20093;-72
2020/12/26 16:03:05;;;;;;;9.43;5.20;;;5.50;88.50;;;;;;10534042;28;20505;-72
2020/12/26 16:08:07;;;;;;;11.15;6.20;;;5.50;88.50;;;;;;10492542;28;20052;-72
2020/12/26 16:13:08;;;;;;;14.10;7.05;;;5.60;88.30;;;;;;10534190;28;20072;-72
2020/12/26 16:18:10;;;;;;;12.05;6.57;;;5.50;86.90;;;;;;10533259;28;20060;-72
2020/12/26 16:23:11;;;;;;;12.30;7.63;;;5.50;87.80;;;;;;10533902;28;20388;-72
2020/12/26 16:28:12;;;;;;;6.70;4.28;;;5.50;88.30;;;;;;10538950;28;20454;-72
2020/12/26 16:33:14;;;;;;;6.38;3.30;;;5.50;88.50;;;;;;10540754;28;20044;-72
2020/12/26 16:38:16;;;;;;;5.57;3.13;;;5.50;89.50;;;;;;10539272;28;20078;-72
2020/12/26 16:43:17;;;;;;;6.97;3.80;;;5.50;88.50;;;;;;10541146;28;20248;-72
2020/12/26 16:48:19;;;;;;;6.00;3.40;;;5.60;88.30;;;;;;10539716;28;20055;-72
2020/12/26 16:53:20;;;;;;;7.28;4.10;;;5.70;88.70;;;;;;10540128;28;20565;-72
2020/12/26 16:58:23;;;;;;;7.22;4.28;;;5.70;88.60;;;;;;10540321;28;20114;-72
2020/12/26 17:03:26;;;;;;;8.20;4.05;;;5.60;88.20;;;;;;10539876;28;20086;-72
2020/12/26 17:08:28;;;;;;;6.68;3.85;;;5.60;88.30;;;;;;10538879;28;20083;-72
2020/12/26 17:13:29;;;;;;;5.68;3.55;;;5.60;88.40;;;;;;10538700;28;20105;-72
2020/12/26 17:18:33;;;;;;;5.15;3.15;;;5.70;88.00;;;;;;10538063;28;20059;-72
2020/12/26 17:23:35;;;;;;;6.10;3.20;;;5.60;88.00;;;;;;10539099;28;20048;-72
2020/12/26 17:28:37;;;;;;;4.65;2.70;;;5.60;89.00;;;;;;10537314;28;20143;-72
2020/12/26 17:33:38;;;;;;;7.70;3.00;;;5.50;88.00;;;;;;10539005;28;20210;-72
2020/12/26 17:38:41;;;;;;;5.55;3.10;;;5.60;88.70;;;;;;10537857;28;20048;-72
2020/12/26 17:43:44;;;;;;;6.40;3.05;;;5.50;88.00;;;;;;10537566;28;20453;-72
2020/12/26 17:48:47;;;;;;;8.25;5.10;;;5.50;89.00;;;;;;10537642;28;20121;-72
2020/12/26 17:53:48;;;;;;;10.70;5.07;;;5.50;89.20;;;;;;10537973;28;20149;-72
2020/12/26 17:58:50;;;;;;;6.45;3.97;;;5.40;88.80;;;;;;10536569;28;20052;-72
2020/12/26 18:03:51;;;;;;;11.98;7.07;;;5.40;89.70;;;;;;10528099;28;20048;-72
2020/12/26 18:08:53;;;;;;;6.55;3.47;;;5.40;89.30;;;;;;10536315;28;20083;-72
2020/12/26 18:13:55;;;;;;;6.25;4.05;;;5.40;88.20;;;;;;10536903;28;20055;-73
2020/12/26 18:18:57;;;;;;;5.05;2.90;;;5.50;88.70;;;;;;10535736;28;20105;-73
2020/12/26 18:23:58;;;;;;;5.20;3.03;;;5.50;88.40;;;;;;10536563;28;20055;-73
2020/12/26 18:29:00;;;;;;;5.80;2.67;;;5.50;87.80;;;;;;10528521;28;20048;-72
2020/12/26 18:34:05;;;;;;;6.38;3.47;;;5.40;87.80;;;;;;10536805;28;20488;-72
2020/12/26 18:39:07;;;;;;;4.93;2.80;;;5.40;88.00;;;;;;10534316;28;20048;-72
2020/12/26 18:44:09;;;;;;;4.25;2.10;;;5.40;87.60;;;;;;10536512;28;20055;-72
2020/12/26 18:49:10;;;;;;;5.43;2.40;;;5.40;86.90;;;;;;10534672;28;20511;-72
2020/12/26 18:54:13;;;;;;;5.80;2.08;;;5.40;86.60;;;;;;10536119;28;20048;-72
2020/12/26 18:59:14;;;;;;;5.07;2.30;;;5.40;86.10;;;;;;10534597;28;20048;-72
2020/12/26 19:04:16;;;;;;;3.95;2.40;;;5.50;86.10;;;;;;10535004;28;20048;-72
2020/12/26 19:09:18;;;;;;;7.82;2.42;;;5.60;86.40;;;;;;10534071;28;20455;-72
2020/12/26 19:14:20;;;;;;;4.75;2.40;;;5.50;85.60;;;;;;10534753;28;20101;-72
2020/12/26 19:19:21;;;;;;;6.32;2.40;;;5.40;86.50;;;;;;10516413;28;20442;-72
2020/12/26 19:24:23;;;;;;;6.20;2.35;;;5.40;86.20;;;;;;10534851;28;20093;-72
2020/12/26 19:29:26;;;;;;;5.40;2.28;;;5.40;87.00;;;;;;10527113;28;20056;-72
2020/12/26 19:34:28;;;;;;;5.38;2.42;;;5.40;87.00;;;;;;10508987;28;20036;-71
2020/12/26 19:39:30;;;;;;;7.28;3.20;;;5.30;86.50;;;;;;10534118;28;20051;-73
2020/12/26 19:44:32;;;;;;;6.07;2.60;;;5.20;87.90;;;;;;10532397;28;20135;-72
2020/12/26 19:49:34;;;;;;;5.57;2.55;;;5.10;88.10;;;;;;10533594;28;20048;-72
2020/12/26 19:54:37;;;;;;;4.82;2.72;;;4.90;88.80;;;;;;10532733;28;20063;-72
2020/12/26 19:59:39;;;;;;;4.82;2.25;;;4.80;89.80;;;;;;10536559;28;20051;-72
2020/12/26 20:04:40;;;;;;;6.38;2.70;;;4.70;90.00;;;;;;10538051;28;20048;-73
2020/12/26 20:09:42;;;;;;;5.03;2.55;;;4.70;90.10;;;;;;10524830;28;20044;-73
2020/12/26 20:14:43;;;;;;;8.75;3.17;;;4.60;90.40;;;;;;10539590;28;20044;-72
2020/12/26 20:19:44;;;;;;;5.85;2.55;;;4.60;90.50;;;;;;10534427;28;20052;-73
2020/12/26 20:24:46;;;;;;;5.63;2.53;;;4.60;90.80;;;;;;10538777;28;20044;-72
2020/12/26 20:29:48;;;;;;;5.07;2.30;;;4.50;90.90;;;;;;10514907;28;20052;-73
2020/12/26 20:34:53;;;;;;;6.18;2.83;;;4.40;90.90;;;;;;10523197;28;20048;-72
2020/12/26 20:39:55;;;;;;;5.20;2.50;;;4.40;90.90;;;;;;10529848;28;20051;-73
2020/12/26 20:44:56;;;;;;;5.40;2.28;;;4.40;91.00;;;;;;10526749;28;20044;-72
2020/12/26 20:49:58;;;;;;;5.22;2.40;;;4.40;90.70;;;;;;10513693;28;20052;-72
2020/12/26 20:54:59;;;;;;;5.80;2.60;;;4.50;90.90;;;;;;10529173;28;20059;-72
2020/12/26 21:00:01;;;;;;;4.53;2.25;;;4.40;90.90;;;;;;10537679;28;20048;-73
2020/12/26 21:05:09;;;;;;;6.20;2.55;;;4.50;90.70;;;;;;10529405;28;20051;-73
2020/12/26 21:10:35;;;;;;;3.35;2.10;;;4.50;91.00;;;;;;10502606;28;20063;-72
2020/12/26 21:15:37;;;;;;;6.35;2.95;;;4.50;90.50;;;;;;10533905;28;20051;-72
2020/12/26 21:20:40;;;;;;;17.83;7.88;;;4.50;90.50;;;;;;10524481;28;20048;-73
2020/12/26 21:25:41;;;;;;;20.83;8.88;;;4.50;90.90;;;;;;10535752;28;20052;-73
2020/12/26 21:30:43;;;;;;;8.52;3.72;;;4.50;90.80;;;;;;10536330;28;20534;-73
2020/12/26 21:35:44;;;;;;;31.88;12.10;;;4.50;90.50;;;;;;10537962;28;20040;-73
2020/12/26 21:40:46;;;;;;;12.43;5.88;;;4.50;90.80;;;;;;10536374;28;20105;-73
2020/12/26 21:45:47;;;;;;;44.60;15.93;;;4.50;90.60;;;;;;10516141;28;20044;-73
2020/12/26 21:50:49;;;;;;;27.65;10.88;;;4.50;91.20;;;;;;10536909;28;20052;-73
2020/12/26 21:55:50;;;;;;;18.58;7.78;;;4.50;90.80;;;;;;10536016;28;20044;-73
2020/12/26 22:00:53;;;;;;;17.67;7.50;;;4.60;90.70;;;;;;10513043;28;20048;-73
2020/12/26 22:05:55;;;;;;;17.10;7.00;;;4.60;90.70;;;;;;10531011;28;20503;-73
2020/12/26 22:10:58;;;;;;;14.27;7.18;;;4.80;90.80;;;;;;10532629;28;20336;-73
2020/12/26 22:16:01;;;;;;;16.35;6.95;;;4.80;90.20;;;;;;10535114;28;20048;-73
2020/12/26 22:21:03;;;;;;;10.65;5.53;;;4.90;90.20;;;;;;10535355;28;20059;-73
2020/12/26 22:26:04;;;;;;;8.75;3.30;;;4.90;90.20;;;;;;10535860;28;20560;-73
2020/12/26 22:31:06;;;;;;;8.50;3.00;;;4.90;89.80;;;;;;10534596;28;20056;-73
2020/12/26 22:36:13;;;;;;;7.03;2.95;;;4.90;90.20;;;;;;10536963;28;20337;-73
2020/12/26 22:41:15;;;;;;;5.75;2.63;;;4.90;89.70;;;;;;10534757;28;20044;-73
2020/12/26 22:46:17;;;;;;;5.70;2.78;;;4.90;90.10;;;;;;10536183;28;20039;-73
2020/12/26 22:51:19;;;;;;;6.35;2.80;;;4.80;90.10;;;;;;10537109;28;20445;-73
2020/12/26 22:56:23;;;;;;;4.80;2.33;;;4.80;90.40;;;;;;10529228;28;20135;-73
2020/12/26 23:01:27;;;;;;;4.80;2.90;;;4.80;90.00;;;;;;10536642;28;20040;-73
2020/12/26 23:06:29;;;;;;;5.93;3.10;;;4.70;90.40;;;;;;10536255;28;20519;-73
2020/12/26 23:11:30;;;;;;;7.85;3.03;;;4.60;90.90;;;;;;10535667;28;20549;-73
2020/12/26 23:16:31;;;;;;;6.68;3.10;;;4.60;90.50;;;;;;10535650;28;20052;-73
2020/12/26 23:21:33;;;;;;;7.07;3.17;;;4.60;90.90;;;;;;10535082;28;20032;-73
2020/12/26 23:26:34;;;;;;;5.28;3.10;;;4.50;91.00;;;;;;10527592;28;20076;-73
2020/12/26 23:31:36;;;;;;;7.13;3.17;;;4.50;90.90;;;;;;10536094;28;20071;-73
2020/12/26 23:36:46;;;;;;;5.97;2.72;;;4.40;90.90;;;;;;10542090;28;20454;-73
2020/12/26 23:41:47;;;;;;;8.07;3.60;;;4.40;90.90;;;;;;10543251;28;20400;-72
2020/12/26 23:46:49;;;;;;;6.60;3.92;;;4.40;90.90;;;;;;10508975;28;20484;-73
2020/12/26 23:51:51;;;;;;;5.93;2.85;;;4.30;91.20;;;;;;10531492;28;20139;-73
2020/12/26 23:56:53;;;;;;;7.72;4.07;;;4.20;91.00;;;;;;10535008;28;20513;-73
